sensor_id;sensor_type;location;lat;lon;timestamp;temperature;humidity
13697;DHT22;6920;50.080;8.226;2022-11-02T00:02:26;8.80;99.90
13697;DHT22;6920;50.080;8.226;2022-11-02T00:04:56;8.80;99.90
13697;DHT22;6920;50.080;8.226;2022-11-02T00:07:32;8.90;99.90
13697;DHT22;6920;50.080;8.226;2022-11-02T00:10:01;8.80;99.90
13697;DHT22;6920;50.080;8.226;2022-11-02T00:12:32;8.80;99.90
13697;DHT22;6920;50.080;8.226;2022-11-02T00:15:10;8.90;99.90
13697;DHT22;6920;50.080;8.226;2022-11-02T00:17:43;8.80;99.90
13697;DHT22;6920;50.080;8.226;2022-11-02T00:20:15;8.90;99.90
13697;DHT22;6920;50.080;8.226;2022-11-02T00:22:45;8.90;99.90
13697;DHT22;6920;50.080;8.226;2022-11-02T00:25:19;8.80;99.90
13697;DHT22;6920;50.080;8.226;2022-11-02T00:27:49;8.70;99.90
13697;DHT22;6920;50.080;8.226;2022-11-02T00:30:18;8.70;99.90
13697;DHT22;6920;50.080;8.226;2022-11-02T00:32:50;8.70;99.90
13697;DHT22;6920;50.080;8.226;2022-11-02T00:35:32;8.60;99.90
13697;DHT22;6920;50.080;8.226;2022-11-02T00:38:00;8.60;99.90
13697;DHT22;6920;50.080;8.226;2022-11-02T00:40:33;8.50;99.90
13697;DHT22;6920;50.080;8.226;2022-11-02T00:43:03;8.50;99.90
13697;DHT22;6920;50.080;8.226;2022-11-02T00:45:39;8.70;99.90
13697;DHT22;6920;50.080;8.226;2022-11-02T00:48:07;8.70;99.90
13697;DHT22;6920;50.080;8.226;2022-11-02T00:50:35;8.70;99.90
13697;DHT22;6920;50.080;8.226;2022-11-02T00:53:04;8.80;99.90
13697;DHT22;6920;50.080;8.226;2022-11-02T00:55:32;8.80;99.90
13697;DHT22;6920;50.080;8.226;2022-11-02T00:57:59;8.70;99.90
13697;DHT22;6920;50.080;8.226;2022-11-02T01:00:26;8.70;99.90
13697;DHT22;6920;50.080;8.226;2022-11-02T01:03:00;8.80;99.90
13697;DHT22;6920;50.080;8.226;2022-11-02T01:05:28;8.70;99.90
13697;DHT22;6920;50.080;8.226;2022-11-02T01:07:55;8.70;99.90
13697;DHT22;6920;50.080;8.226;2022-11-02T01:10:23;8.70;99.90
13697;DHT22;6920;50.080;8.226;2022-11-02T01:12:52;8.60;99.90
13697;DHT22;6920;50.080;8.226;2022-11-02T01:15:21;8.60;99.90
13697;DHT22;6920;50.080;8.226;2022-11-02T01:17:49;8.70;99.90
13697;DHT22;6920;50.080;8.226;2022-11-02T01:20:19;8.60;99.90
13697;DHT22;6920;50.080;8.226;2022-11-02T01:22:47;8.50;99.90
13697;DHT22;6920;50.080;8.226;2022-11-02T01:25:16;8.50;99.90
13697;DHT22;6920;50.080;8.226;2022-11-02T01:27:47;8.40;99.90
13697;DHT22;6920;50.080;8.226;2022-11-02T01:30:15;8.30;99.90
13697;DHT22;6920;50.080;8.226;2022-11-02T01:32:43;8.30;99.90
13697;DHT22;6920;50.080;8.226;2022-11-02T01:35:12;8.30;99.90
13697;DHT22;6920;50.080;8.226;2022-11-02T01:37:45;8.40;99.90
13697;DHT22;6920;50.080;8.226;2022-11-02T01:42:51;7.90;99.90
13697;DHT22;6920;50.080;8.226;2022-11-02T01:45:18;8.20;99.90
13697;DHT22;6920;50.080;8.226;2022-11-02T01:47:48;8.20;99.90
13697;DHT22;6920;50.080;8.226;2022-11-02T01:50:20;8.30;99.90
13697;DHT22;6920;50.080;8.226;2022-11-02T01:52:54;8.30;99.90
13697;DHT22;6920;50.080;8.226;2022-11-02T01:55:24;8.40;99.90
13697;DHT22;6920;50.080;8.226;2022-11-02T01:57:56;8.50;99.90
13697;DHT22;6920;50.080;8.226;2022-11-02T02:00:28;8.40;99.90
13697;DHT22;6920;50.080;8.226;2022-11-02T02:03:02;8.40;99.90
13697;DHT22;6920;50.080;8.226;2022-11-02T02:05:33;8.40;99.90
13697;DHT22;6920;50.080;8.226;2022-11-02T02:08:07;8.50;99.90
13697;DHT22;6920;50.080;8.226;2022-11-02T02:10:36;8.60;99.90
13697;DHT22;6920;50.080;8.226;2022-11-02T02:13:04;8.60;99.90
13697;DHT22;6920;50.080;8.226;2022-11-02T02:15:38;8.40;99.90
13697;DHT22;6920;50.080;8.226;2022-11-02T02:18:15;8.40;99.90
13697;DHT22;6920;50.080;8.226;2022-11-02T02:21:00;8.40;99.90
13697;DHT22;6920;50.080;8.226;2022-11-02T02:27:10;8.50;99.90
13697;DHT22;6920;50.080;8.226;2022-11-02T02:29:48;8.40;99.90
13697;DHT22;6920;50.080;8.226;2022-11-02T02:32:23;8.30;99.90
13697;DHT22;6920;50.080;8.226;2022-11-02T02:34:54;8.30;99.90
13697;DHT22;6920;50.080;8.226;2022-11-02T02:37:29;8.30;99.90
13697;DHT22;6920;50.080;8.226;2022-11-02T02:40:03;8.20;99.90
13697;DHT22;6920;50.080;8.226;2022-11-02T02:42:33;8.30;99.90
13697;DHT22;6920;50.080;8.226;2022-11-02T02:45:22;8.40;99.90
13697;DHT22;6920;50.080;8.226;2022-11-02T02:47:56;8.50;99.90
13697;DHT22;6920;50.080;8.226;2022-11-02T02:50:27;8.60;99.90
13697;DHT22;6920;50.080;8.226;2022-11-02T02:52:58;8.60;99.90
13697;DHT22;6920;50.080;8.226;2022-11-02T02:55:33;8.70;99.90
13697;DHT22;6920;50.080;8.226;2022-11-02T02:58:06;8.70;99.90
13697;DHT22;6920;50.080;8.226;2022-11-02T03:00:42;8.70;99.90
13697;DHT22;6920;50.080;8.226;2022-11-02T03:03:14;8.70;99.90
13697;DHT22;6920;50.080;8.226;2022-11-02T03:05:52;8.80;99.90
13697;DHT22;6920;50.080;8.226;2022-11-02T03:08:22;8.80;99.90
13697;DHT22;6920;50.080;8.226;2022-11-02T03:10:54;8.90;99.90
13697;DHT22;6920;50.080;8.226;2022-11-02T03:13:39;8.80;99.90
13697;DHT22;6920;50.080;8.226;2022-11-02T03:16:25;8.80;99.90
13697;DHT22;6920;50.080;8.226;2022-11-02T03:18:59;8.70;99.90
13697;DHT22;6920;50.080;8.226;2022-11-02T03:21:38;8.70;99.90
13697;DHT22;6920;50.080;8.226;2022-11-02T03:24:11;8.80;99.90
13697;DHT22;6920;50.080;8.226;2022-11-02T03:26:44;8.70;99.90
13697;DHT22;6920;50.080;8.226;2022-11-02T03:29:20;8.80;99.90
13697;DHT22;6920;50.080;8.226;2022-11-02T03:32:00;8.90;99.90
13697;DHT22;6920;50.080;8.226;2022-11-02T03:34:36;8.90;99.90
13697;DHT22;6920;50.080;8.226;2022-11-02T03:37:11;9.00;99.90
13697;DHT22;6920;50.080;8.226;2022-11-02T03:39:45;9.00;99.90
13697;DHT22;6920;50.080;8.226;2022-11-02T03:42:19;9.00;99.90
13697;DHT22;6920;50.080;8.226;2022-11-02T03:44:52;9.10;99.90
13697;DHT22;6920;50.080;8.226;2022-11-02T03:47:27;9.10;99.90
13697;DHT22;6920;50.080;8.226;2022-11-02T03:49:59;9.20;99.90
13697;DHT22;6920;50.080;8.226;2022-11-02T03:52:30;9.30;99.90
13697;DHT22;6920;50.080;8.226;2022-11-02T03:55:04;9.30;99.90
13697;DHT22;6920;50.080;8.226;2022-11-02T03:57:39;9.40;99.90
13697;DHT22;6920;50.080;8.226;2022-11-02T04:00:11;9.40;99.90
13697;DHT22;6920;50.080;8.226;2022-11-02T04:02:46;9.40;99.90
13697;DHT22;6920;50.080;8.226;2022-11-02T04:05:16;9.40;99.90
13697;DHT22;6920;50.080;8.226;2022-11-02T04:07:49;9.40;99.90
13697;DHT22;6920;50.080;8.226;2022-11-02T04:10:37;9.50;99.90
13697;DHT22;6920;50.080;8.226;2022-11-02T04:13:28;9.30;99.90
13697;DHT22;6920;50.080;8.226;2022-11-02T04:16:16;9.20;99.90
13697;DHT22;6920;50.080;8.226;2022-11-02T04:18:46;9.20;99.90
13697;DHT22;6920;50.080;8.226;2022-11-02T04:21:32;9.20;99.90
13697;DHT22;6920;50.080;8.226;2022-11-02T04:24:00;9.20;99.90
13697;DHT22;6920;50.080;8.226;2022-11-02T04:26:47;9.20;99.90
13697;DHT22;6920;50.080;8.226;2022-11-02T04:29:20;9.20;99.90
13697;DHT22;6920;50.080;8.226;2022-11-02T04:31:47;9.20;99.90
13697;DHT22;6920;50.080;8.226;2022-11-02T04:34:18;9.00;99.90
13697;DHT22;6920;50.080;8.226;2022-11-02T04:36:44;9.00;99.90
13697;DHT22;6920;50.080;8.226;2022-11-02T04:39:13;8.90;99.90
13697;DHT22;6920;50.080;8.226;2022-11-02T04:41:39;8.90;99.90
13697;DHT22;6920;50.080;8.226;2022-11-02T04:44:13;8.90;99.90
13697;DHT22;6920;50.080;8.226;2022-11-02T04:46:43;9.00;99.90
13697;DHT22;6920;50.080;8.226;2022-11-02T04:49:11;9.00;99.90
13697;DHT22;6920;50.080;8.226;2022-11-02T04:51:44;9.00;99.90
13697;DHT22;6920;50.080;8.226;2022-11-02T04:54:12;9.10;99.90
13697;DHT22;6920;50.080;8.226;2022-11-02T04:56:39;9.00;99.90
13697;DHT22;6920;50.080;8.226;2022-11-02T04:59:07;8.90;99.90
13697;DHT22;6920;50.080;8.226;2022-11-02T05:01:36;8.80;99.90
13697;DHT22;6920;50.080;8.226;2022-11-02T05:04:03;8.80;99.90
13697;DHT22;6920;50.080;8.226;2022-11-02T05:06:30;8.70;99.90
13697;DHT22;6920;50.080;8.226;2022-11-02T05:08:59;8.80;99.90
13697;DHT22;6920;50.080;8.226;2022-11-02T05:11:27;8.80;99.90
13697;DHT22;6920;50.080;8.226;2022-11-02T05:13:55;8.70;99.90
13697;DHT22;6920;50.080;8.226;2022-11-02T05:16:22;8.50;99.90
13697;DHT22;6920;50.080;8.226;2022-11-02T05:18:50;8.50;99.90
13697;DHT22;6920;50.080;8.226;2022-11-02T05:21:18;8.50;99.90
13697;DHT22;6920;50.080;8.226;2022-11-02T05:23:56;8.50;99.90
13697;DHT22;6920;50.080;8.226;2022-11-02T05:26:25;8.40;99.90
13697;DHT22;6920;50.080;8.226;2022-11-02T05:28:52;8.20;99.90
13697;DHT22;6920;50.080;8.226;2022-11-02T05:31:20;8.30;99.90
13697;DHT22;6920;50.080;8.226;2022-11-02T05:33:49;8.40;99.90
13697;DHT22;6920;50.080;8.226;2022-11-02T05:36:19;8.30;99.90
13697;DHT22;6920;50.080;8.226;2022-11-02T05:38:52;8.40;99.90
13697;DHT22;6920;50.080;8.226;2022-11-02T05:41:27;8.40;99.90
13697;DHT22;6920;50.080;8.226;2022-11-02T05:43:56;8.30;99.90
13697;DHT22;6920;50.080;8.226;2022-11-02T05:46:26;8.30;99.90
13697;DHT22;6920;50.080;8.226;2022-11-02T05:48:56;8.30;99.90
13697;DHT22;6920;50.080;8.226;2022-11-02T05:51:27;8.30;99.90
13697;DHT22;6920;50.080;8.226;2022-11-02T05:53:55;8.30;99.90
13697;DHT22;6920;50.080;8.226;2022-11-02T05:56:22;8.20;99.90
13697;DHT22;6920;50.080;8.226;2022-11-02T05:58:53;6.90;99.90
13697;DHT22;6920;50.080;8.226;2022-11-02T06:01:22;8.30;99.90
13697;DHT22;6920;50.080;8.226;2022-11-02T06:03:50;8.30;99.90
13697;DHT22;6920;50.080;8.226;2022-11-02T06:06:17;8.20;99.90
13697;DHT22;6920;50.080;8.226;2022-11-02T06:08:44;8.20;99.90
13697;DHT22;6920;50.080;8.226;2022-11-02T06:11:13;8.10;99.90
13697;DHT22;6920;50.080;8.226;2022-11-02T06:13:47;8.10;99.90
13697;DHT22;6920;50.080;8.226;2022-11-02T06:16:19;8.10;99.90
13697;DHT22;6920;50.080;8.226;2022-11-02T06:18:47;8.10;99.90
13697;DHT22;6920;50.080;8.226;2022-11-02T06:21:15;8.10;99.90
13697;DHT22;6920;50.080;8.226;2022-11-02T06:23:45;8.10;99.90
13697;DHT22;6920;50.080;8.226;2022-11-02T06:26:12;8.10;99.90
13697;DHT22;6920;50.080;8.226;2022-11-02T06:28:40;8.10;99.90
13697;DHT22;6920;50.080;8.226;2022-11-02T06:31:08;7.90;99.90
13697;DHT22;6920;50.080;8.226;2022-11-02T06:33:42;7.90;99.90
13697;DHT22;6920;50.080;8.226;2022-11-02T06:36:12;7.90;99.90
13697;DHT22;6920;50.080;8.226;2022-11-02T06:38:39;8.00;99.90
13697;DHT22;6920;50.080;8.226;2022-11-02T06:41:11;8.10;99.90
13697;DHT22;6920;50.080;8.226;2022-11-02T06:43:39;8.00;99.90
13697;DHT22;6920;50.080;8.226;2022-11-02T06:46:06;8.10;99.90
13697;DHT22;6920;50.080;8.226;2022-11-02T06:48:34;8.20;99.90
13697;DHT22;6920;50.080;8.226;2022-11-02T06:51:08;8.20;99.90
13697;DHT22;6920;50.080;8.226;2022-11-02T06:53:35;8.30;99.90
13697;DHT22;6920;50.080;8.226;2022-11-02T06:56:05;8.50;99.90
13697;DHT22;6920;50.080;8.226;2022-11-02T06:58:36;8.50;99.90
13697;DHT22;6920;50.080;8.226;2022-11-02T07:01:05;8.60;99.90
13697;DHT22;6920;50.080;8.226;2022-11-02T07:03:38;8.70;99.90
13697;DHT22;6920;50.080;8.226;2022-11-02T07:06:36;8.80;99.90
13697;DHT22;6920;50.080;8.226;2022-11-02T07:09:11;8.90;99.90
13697;DHT22;6920;50.080;8.226;2022-11-02T07:11:39;9.00;99.90
13697;DHT22;6920;50.080;8.226;2022-11-02T07:14:10;9.00;99.90
13697;DHT22;6920;50.080;8.226;2022-11-02T07:16:39;9.10;99.90
13697;DHT22;6920;50.080;8.226;2022-11-02T07:19:11;9.10;99.90
13697;DHT22;6920;50.080;8.226;2022-11-02T07:21:56;9.30;99.90
13697;DHT22;6920;50.080;8.226;2022-11-02T07:24:24;9.30;99.90
13697;DHT22;6920;50.080;8.226;2022-11-02T07:26:55;9.30;99.90
13697;DHT22;6920;50.080;8.226;2022-11-02T07:29:25;9.40;99.90
13697;DHT22;6920;50.080;8.226;2022-11-02T07:31:55;9.40;99.90
13697;DHT22;6920;50.080;8.226;2022-11-02T07:34:27;9.40;99.90
13697;DHT22;6920;50.080;8.226;2022-11-02T07:36:58;9.50;99.90
13697;DHT22;6920;50.080;8.226;2022-11-02T07:39:29;9.60;99.90
13697;DHT22;6920;50.080;8.226;2022-11-02T07:41:58;9.80;99.90
13697;DHT22;6920;50.080;8.226;2022-11-02T07:44:27;9.90;99.90
13697;DHT22;6920;50.080;8.226;2022-11-02T07:46:55;10.10;99.90
13697;DHT22;6920;50.080;8.226;2022-11-02T07:49:37;10.20;99.90
13697;DHT22;6920;50.080;8.226;2022-11-02T07:52:13;10.40;99.90
13697;DHT22;6920;50.080;8.226;2022-11-02T07:54:58;10.60;99.90
13697;DHT22;6920;50.080;8.226;2022-11-02T07:58:01;10.60;99.90
13697;DHT22;6920;50.080;8.226;2022-11-02T08:00:31;10.70;99.90
13697;DHT22;6920;50.080;8.226;2022-11-02T08:03:05;10.60;99.90
13697;DHT22;6920;50.080;8.226;2022-11-02T08:05:36;10.70;99.90
13697;DHT22;6920;50.080;8.226;2022-11-02T08:08:10;10.80;99.90
13697;DHT22;6920;50.080;8.226;2022-11-02T08:10:41;10.90;99.90
13697;DHT22;6920;50.080;8.226;2022-11-02T08:13:10;11.00;99.90
13697;DHT22;6920;50.080;8.226;2022-11-02T08:15:41;11.00;99.90
13697;DHT22;6920;50.080;8.226;2022-11-02T08:18:12;11.20;99.90
13697;DHT22;6920;50.080;8.226;2022-11-02T08:20:42;11.30;99.90
13697;DHT22;6920;50.080;8.226;2022-11-02T08:23:14;11.50;99.90
13697;DHT22;6920;50.080;8.226;2022-11-02T08:25:45;11.70;99.90
13697;DHT22;6920;50.080;8.226;2022-11-02T08:28:18;11.70;99.90
13697;DHT22;6920;50.080;8.226;2022-11-02T08:30:49;11.90;99.90
13697;DHT22;6920;50.080;8.226;2022-11-02T08:33:22;12.00;99.90
13697;DHT22;6920;50.080;8.226;2022-11-02T08:35:52;12.10;99.90
13697;DHT22;6920;50.080;8.226;2022-11-02T08:38:26;12.10;99.90
13697;DHT22;6920;50.080;8.226;2022-11-02T08:40:56;12.40;99.90
13697;DHT22;6920;50.080;8.226;2022-11-02T08:43:24;12.50;99.90
13697;DHT22;6920;50.080;8.226;2022-11-02T08:45:56;12.60;99.90
13697;DHT22;6920;50.080;8.226;2022-11-02T08:48:32;11.10;99.90
13697;DHT22;6920;50.080;8.226;2022-11-02T08:51:01;13.00;99.90
13697;DHT22;6920;50.080;8.226;2022-11-02T08:53:36;12.90;99.90
13697;DHT22;6920;50.080;8.226;2022-11-02T08:56:05;12.90;99.90
13697;DHT22;6920;50.080;8.226;2022-11-02T08:58:33;13.00;99.90
13697;DHT22;6920;50.080;8.226;2022-11-02T09:01:00;13.00;99.90
13697;DHT22;6920;50.080;8.226;2022-11-02T09:03:27;13.00;99.90
13697;DHT22;6920;50.080;8.226;2022-11-02T09:06:00;13.00;99.90
13697;DHT22;6920;50.080;8.226;2022-11-02T09:08:29;13.10;99.90
13697;DHT22;6920;50.080;8.226;2022-11-02T09:11:01;13.30;99.90
13697;DHT22;6920;50.080;8.226;2022-11-02T09:13:29;13.70;99.90
13697;DHT22;6920;50.080;8.226;2022-11-02T09:15:57;13.80;99.90
13697;DHT22;6920;50.080;8.226;2022-11-02T09:18:27;13.80;99.90
13697;DHT22;6920;50.080;8.226;2022-11-02T09:20:56;13.90;99.90
13697;DHT22;6920;50.080;8.226;2022-11-02T09:23:30;13.90;99.90
13697;DHT22;6920;50.080;8.226;2022-11-02T09:26:00;13.80;99.90
13697;DHT22;6920;50.080;8.226;2022-11-02T09:28:30;13.80;99.90
13697;DHT22;6920;50.080;8.226;2022-11-02T09:30:57;13.80;99.90
13697;DHT22;6920;50.080;8.226;2022-11-02T09:33:24;13.80;99.90
13697;DHT22;6920;50.080;8.226;2022-11-02T09:35:54;13.90;99.90
13697;DHT22;6920;50.080;8.226;2022-11-02T09:38:23;14.10;99.90
13697;DHT22;6920;50.080;8.226;2022-11-02T09:41:03;14.00;99.90
13697;DHT22;6920;50.080;8.226;2022-11-02T09:43:40;14.10;99.90
13697;DHT22;6920;50.080;8.226;2022-11-02T09:46:17;14.30;99.90
13697;DHT22;6920;50.080;8.226;2022-11-02T09:48:49;14.30;99.90
13697;DHT22;6920;50.080;8.226;2022-11-02T09:51:24;14.40;99.90
13697;DHT22;6920;50.080;8.226;2022-11-02T09:54:01;14.50;99.90
13697;DHT22;6920;50.080;8.226;2022-11-02T09:56:47;15.00;99.90
13697;DHT22;6920;50.080;8.226;2022-11-02T09:59:19;15.30;99.90
13697;DHT22;6920;50.080;8.226;2022-11-02T10:02:09;15.60;99.90
13697;DHT22;6920;50.080;8.226;2022-11-02T10:05:07;15.80;99.90
13697;DHT22;6920;50.080;8.226;2022-11-02T10:08:03;15.80;99.90
13697;DHT22;6920;50.080;8.226;2022-11-02T10:10:41;15.50;99.90
13697;DHT22;6920;50.080;8.226;2022-11-02T10:13:36;15.60;99.90
13697;DHT22;6920;50.080;8.226;2022-11-02T10:16:13;15.60;99.90
13697;DHT22;6920;50.080;8.226;2022-11-02T10:18:44;15.40;99.90
13697;DHT22;6920;50.080;8.226;2022-11-02T10:21:19;15.20;99.90
13697;DHT22;6920;50.080;8.226;2022-11-02T10:23:59;14.90;99.90
13697;DHT22;6920;50.080;8.226;2022-11-02T10:26:36;14.90;99.90
13697;DHT22;6920;50.080;8.226;2022-11-02T10:29:15;14.80;99.90
13697;DHT22;6920;50.080;8.226;2022-11-02T10:31:44;14.90;99.90
13697;DHT22;6920;50.080;8.226;2022-11-02T10:34:24;14.90;99.90
13697;DHT22;6920;50.080;8.226;2022-11-02T10:37:13;14.90;99.90
13697;DHT22;6920;50.080;8.226;2022-11-02T10:39:55;14.80;99.90
13697;DHT22;6920;50.080;8.226;2022-11-02T10:42:53;14.70;99.90
13697;DHT22;6920;50.080;8.226;2022-11-02T10:45:47;14.60;99.90
13697;DHT22;6920;50.080;8.226;2022-11-02T10:48:50;14.80;99.90
13697;DHT22;6920;50.080;8.226;2022-11-02T10:51:25;15.30;99.90
13697;DHT22;6920;50.080;8.226;2022-11-02T10:53:56;15.80;99.90
13697;DHT22;6920;50.080;8.226;2022-11-02T10:56:30;16.40;99.90
13697;DHT22;6920;50.080;8.226;2022-11-02T10:59:08;16.80;99.90
13697;DHT22;6920;50.080;8.226;2022-11-02T11:02:07;17.00;99.90
13697;DHT22;6920;50.080;8.226;2022-11-02T11:04:41;17.40;99.90
13697;DHT22;6920;50.080;8.226;2022-11-02T11:07:16;17.50;99.90
13697;DHT22;6920;50.080;8.226;2022-11-02T11:09:55;17.20;99.90
13697;DHT22;6920;50.080;8.226;2022-11-02T11:12:38;17.30;99.90
13697;DHT22;6920;50.080;8.226;2022-11-02T11:15:20;17.20;99.90
13697;DHT22;6920;50.080;8.226;2022-11-02T11:18:09;17.20;99.90
13697;DHT22;6920;50.080;8.226;2022-11-02T11:20:42;17.60;99.90
13697;DHT22;6920;50.080;8.226;2022-11-02T11:23:25;17.70;99.90
13697;DHT22;6920;50.080;8.226;2022-11-02T11:26:01;17.50;99.90
13697;DHT22;6920;50.080;8.226;2022-11-02T11:28:31;17.40;99.90
13697;DHT22;6920;50.080;8.226;2022-11-02T11:31:09;17.30;99.90
13697;DHT22;6920;50.080;8.226;2022-11-02T11:33:50;17.50;99.90
13697;DHT22;6920;50.080;8.226;2022-11-02T11:36:26;17.40;99.90
13697;DHT22;6920;50.080;8.226;2022-11-02T11:39:07;17.40;99.90
13697;DHT22;6920;50.080;8.226;2022-11-02T11:41:50;17.80;99.90
13697;DHT22;6920;50.080;8.226;2022-11-02T11:44:32;18.00;99.90
13697;DHT22;6920;50.080;8.226;2022-11-02T11:47:17;18.00;99.90
13697;DHT22;6920;50.080;8.226;2022-11-02T11:49:53;17.90;99.90
13697;DHT22;6920;50.080;8.226;2022-11-02T11:52:29;17.80;99.90
13697;DHT22;6920;50.080;8.226;2022-11-02T11:55:25;18.10;99.90
13697;DHT22;6920;50.080;8.226;2022-11-02T11:58:21;17.90;99.90
13697;DHT22;6920;50.080;8.226;2022-11-02T12:01:13;18.00;99.90
13697;DHT22;6920;50.080;8.226;2022-11-02T12:03:56;18.00;99.90
13697;DHT22;6920;50.080;8.226;2022-11-02T12:06:53;18.00;99.90
13697;DHT22;6920;50.080;8.226;2022-11-02T12:09:45;18.10;99.90
13697;DHT22;6920;50.080;8.226;2022-11-02T12:12:25;18.10;99.90
13697;DHT22;6920;50.080;8.226;2022-11-02T12:15:10;18.10;99.90
13697;DHT22;6920;50.080;8.226;2022-11-02T12:18:01;17.80;99.90
13697;DHT22;6920;50.080;8.226;2022-11-02T12:21:01;17.90;99.90
13697;DHT22;6920;50.080;8.226;2022-11-02T12:24:01;18.20;99.90
13697;DHT22;6920;50.080;8.226;2022-11-02T12:26:48;18.30;99.90
13697;DHT22;6920;50.080;8.226;2022-11-02T12:29:50;18.40;99.90
13697;DHT22;6920;50.080;8.226;2022-11-02T12:32:39;18.30;99.90
13697;DHT22;6920;50.080;8.226;2022-11-02T12:35:41;18.30;99.90
13697;DHT22;6920;50.080;8.226;2022-11-02T12:38:42;18.20;99.90
13697;DHT22;6920;50.080;8.226;2022-11-02T12:41:22;18.20;99.90
13697;DHT22;6920;50.080;8.226;2022-11-02T12:44:08;18.70;99.90
13697;DHT22;6920;50.080;8.226;2022-11-02T12:47:02;19.40;99.90
13697;DHT22;6920;50.080;8.226;2022-11-02T12:49:44;19.40;99.90
13697;DHT22;6920;50.080;8.226;2022-11-02T12:52:34;19.00;99.90
13697;DHT22;6920;50.080;8.226;2022-11-02T12:55:13;19.40;99.90
13697;DHT22;6920;50.080;8.226;2022-11-02T12:57:44;19.70;99.90
13697;DHT22;6920;50.080;8.226;2022-11-02T13:00:18;20.00;99.90
13697;DHT22;6920;50.080;8.226;2022-11-02T13:02:56;19.80;99.90
13697;DHT22;6920;50.080;8.226;2022-11-02T13:05:31;20.00;99.90
13697;DHT22;6920;50.080;8.226;2022-11-02T13:08:10;20.10;99.90
13697;DHT22;6920;50.080;8.226;2022-11-02T13:10:45;20.50;99.90
13697;DHT22;6920;50.080;8.226;2022-11-02T13:13:28;20.10;99.90
13697;DHT22;6920;50.080;8.226;2022-11-02T13:16:16;19.80;99.90
13697;DHT22;6920;50.080;8.226;2022-11-02T13:18:51;18.90;99.90
13697;DHT22;6920;50.080;8.226;2022-11-02T13:21:28;19.70;99.90
13697;DHT22;6920;50.080;8.226;2022-11-02T13:24:02;20.50;99.90
13697;DHT22;6920;50.080;8.226;2022-11-02T13:26:39;20.20;99.90
13697;DHT22;6920;50.080;8.226;2022-11-02T13:29:14;20.40;99.90
13697;DHT22;6920;50.080;8.226;2022-11-02T13:31:56;20.10;99.90
13697;DHT22;6920;50.080;8.226;2022-11-02T13:34:35;20.10;99.90
13697;DHT22;6920;50.080;8.226;2022-11-02T13:37:06;20.10;99.90
13697;DHT22;6920;50.080;8.226;2022-11-02T13:39:58;19.30;99.90
13697;DHT22;6920;50.080;8.226;2022-11-02T13:46:19;18.80;99.90
13697;DHT22;6920;50.080;8.226;2022-11-02T13:49:05;18.40;99.90
13697;DHT22;6920;50.080;8.226;2022-11-02T13:51:50;18.40;99.90
13697;DHT22;6920;50.080;8.226;2022-11-02T13:54:27;18.10;99.90
13697;DHT22;6920;50.080;8.226;2022-11-02T13:56:59;17.90;99.90
13697;DHT22;6920;50.080;8.226;2022-11-02T13:59:33;17.70;99.90
13697;DHT22;6920;50.080;8.226;2022-11-02T14:02:21;17.60;99.90
13697;DHT22;6920;50.080;8.226;2022-11-02T14:04:56;17.60;99.90
13697;DHT22;6920;50.080;8.226;2022-11-02T14:07:37;17.10;99.90
13697;DHT22;6920;50.080;8.226;2022-11-02T14:10:16;16.80;99.90
13697;DHT22;6920;50.080;8.226;2022-11-02T14:12:57;16.40;99.90
13697;DHT22;6920;50.080;8.226;2022-11-02T14:15:52;16.30;99.90
13697;DHT22;6920;50.080;8.226;2022-11-02T14:18:29;16.30;99.90
13697;DHT22;6920;50.080;8.226;2022-11-02T14:27:29;15.80;99.90
13697;DHT22;6920;50.080;8.226;2022-11-02T14:30:03;15.80;99.90
13697;DHT22;6920;50.080;8.226;2022-11-02T14:32:45;15.70;99.90
13697;DHT22;6920;50.080;8.226;2022-11-02T14:35:39;15.60;99.90
13697;DHT22;6920;50.080;8.226;2022-11-02T14:38:24;15.60;99.90
13697;DHT22;6920;50.080;8.226;2022-11-02T14:40:59;15.60;99.90
13697;DHT22;6920;50.080;8.226;2022-11-02T14:44:02;15.60;99.90
13697;DHT22;6920;50.080;8.226;2022-11-02T14:46:55;15.60;99.90
13697;DHT22;6920;50.080;8.226;2022-11-02T14:49:29;15.50;99.90
13697;DHT22;6920;50.080;8.226;2022-11-02T14:52:21;15.40;99.90
13697;DHT22;6920;50.080;8.226;2022-11-02T14:54:57;15.40;99.90
13697;DHT22;6920;50.080;8.226;2022-11-02T14:57:30;15.40;99.90
13697;DHT22;6920;50.080;8.226;2022-11-02T15:00:15;15.30;99.90
13697;DHT22;6920;50.080;8.226;2022-11-02T15:02:55;15.30;99.90
13697;DHT22;6920;50.080;8.226;2022-11-02T15:05:30;15.20;99.90
13697;DHT22;6920;50.080;8.226;2022-11-02T15:08:04;15.20;99.90
13697;DHT22;6920;50.080;8.226;2022-11-02T15:10:42;15.20;99.90
13697;DHT22;6920;50.080;8.226;2022-11-02T15:13:34;15.20;99.90
13697;DHT22;6920;50.080;8.226;2022-11-02T15:16:38;15.20;99.90
13697;DHT22;6920;50.080;8.226;2022-11-02T15:19:35;15.10;99.90
13697;DHT22;6920;50.080;8.226;2022-11-02T15:25:17;15.00;99.90
13697;DHT22;6920;50.080;8.226;2022-11-02T15:27:50;14.90;99.90
13697;DHT22;6920;50.080;8.226;2022-11-02T15:32:54;14.90;99.90
13697;DHT22;6920;50.080;8.226;2022-11-02T15:35:26;14.80;99.90
13697;DHT22;6920;50.080;8.226;2022-11-02T15:38:07;14.80;99.90
13697;DHT22;6920;50.080;8.226;2022-11-02T15:41:03;14.70;99.90
13697;DHT22;6920;50.080;8.226;2022-11-02T15:43:45;14.60;99.90
13697;DHT22;6920;50.080;8.226;2022-11-02T15:46:46;14.60;99.90
13697;DHT22;6920;50.080;8.226;2022-11-02T15:52:19;14.40;99.90
13697;DHT22;6920;50.080;8.226;2022-11-02T15:54:59;14.40;99.90
13697;DHT22;6920;50.080;8.226;2022-11-02T15:57:39;14.30;99.90
13697;DHT22;6920;50.080;8.226;2022-11-02T16:00:18;14.30;99.90
13697;DHT22;6920;50.080;8.226;2022-11-02T16:03:00;14.20;99.90
13697;DHT22;6920;50.080;8.226;2022-11-02T16:05:32;14.20;99.90
13697;DHT22;6920;50.080;8.226;2022-11-02T16:08:30;14.10;99.90
13697;DHT22;6920;50.080;8.226;2022-11-02T16:11:03;14.10;99.90
13697;DHT22;6920;50.080;8.226;2022-11-02T16:13:34;14.00;99.90
13697;DHT22;6920;50.080;8.226;2022-11-02T16:16:07;13.90;99.90
13697;DHT22;6920;50.080;8.226;2022-11-02T16:18:43;13.90;99.90
13697;DHT22;6920;50.080;8.226;2022-11-02T16:21:18;13.80;99.90
13697;DHT22;6920;50.080;8.226;2022-11-02T16:23:48;13.80;99.90
13697;DHT22;6920;50.080;8.226;2022-11-02T16:26:19;13.70;99.90
13697;DHT22;6920;50.080;8.226;2022-11-02T16:28:51;13.70;99.90
13697;DHT22;6920;50.080;8.226;2022-11-02T16:31:21;13.60;99.90
13697;DHT22;6920;50.080;8.226;2022-11-02T16:33:53;13.40;99.90
13697;DHT22;6920;50.080;8.226;2022-11-02T16:36:24;13.30;99.90
13697;DHT22;6920;50.080;8.226;2022-11-02T16:38:58;13.10;99.90
13697;DHT22;6920;50.080;8.226;2022-11-02T16:41:33;12.90;99.90
13697;DHT22;6920;50.080;8.226;2022-11-02T16:44:08;13.00;99.90
13697;DHT22;6920;50.080;8.226;2022-11-02T16:46:41;13.00;99.90
13697;DHT22;6920;50.080;8.226;2022-11-02T16:49:16;12.70;99.90
13697;DHT22;6920;50.080;8.226;2022-11-02T16:51:50;12.70;99.90
13697;DHT22;6920;50.080;8.226;2022-11-02T16:54:39;12.50;99.90
13697;DHT22;6920;50.080;8.226;2022-11-02T16:57:13;12.30;99.90
13697;DHT22;6920;50.080;8.226;2022-11-02T16:59:49;12.20;99.90
13697;DHT22;6920;50.080;8.226;2022-11-02T17:02:17;12.10;99.90
13697;DHT22;6920;50.080;8.226;2022-11-02T17:04:46;11.90;99.90
13697;DHT22;6920;50.080;8.226;2022-11-02T17:07:19;11.90;99.90
13697;DHT22;6920;50.080;8.226;2022-11-02T17:09:52;11.70;99.90
13697;DHT22;6920;50.080;8.226;2022-11-02T17:12:27;11.50;99.90